createdAt,value
2023-04-02T00:00:19.312Z,100392.00
2023-04-02T00:02:59.972Z,100434.00
2023-04-02T00:05:54.782Z,100431.00
2023-04-02T00:08:29.463Z,100442.00
2023-04-02T00:11:00.413Z,100436.00
2023-04-02T00:13:35.018Z,100448.00
2023-04-02T00:16:05.650Z,100450.00
2023-04-02T00:18:35.091Z,100457.00
2023-04-02T00:21:12.406Z,100469.00
2023-04-02T00:23:41.945Z,100472.00
2023-04-02T00:26:23.225Z,100478.00
2023-04-02T00:28:51.219Z,100475.00
2023-04-02T00:31:20.753Z,100480.00
2023-04-02T00:33:50.010Z,100470.00
2023-04-02T00:36:22.021Z,100477.00
2023-04-02T00:38:50.396Z,100481.00
2023-04-02T00:41:23.560Z,100483.00
2023-04-02T00:43:53.811Z,100498.00
2023-04-02T00:46:27.586Z,100498.00
2023-04-02T00:48:59.958Z,100495.00
2023-04-02T00:51:32.163Z,100514.00
2023-04-02T00:54:04.673Z,100478.00
2023-04-02T00:56:37.333Z,100513.00
2023-04-02T00:59:05.349Z,100525.00
2023-04-02T01:01:37.818Z,100532.00
2023-04-02T01:04:06.600Z,100534.00
2023-04-02T01:06:38.470Z,100528.00
2023-04-02T01:09:20.549Z,100543.00
2023-04-02T01:12:11.229Z,100536.00
2023-04-02T01:14:46.687Z,100538.00
2023-04-02T01:17:28.459Z,100538.00
2023-04-02T01:20:34.525Z,100547.00
2023-04-02T01:23:09.091Z,100557.00
2023-04-02T01:25:44.273Z,100554.00
2023-04-02T01:28:19.656Z,100557.00
2023-04-02T01:30:53.370Z,100560.00
2023-04-02T01:33:22.727Z,100575.00
2023-04-02T01:35:56.442Z,100573.00
2023-04-02T01:38:32.177Z,100560.00
2023-04-02T01:41:05.652Z,100577.00
2023-04-02T01:43:41.143Z,100577.00
2023-04-02T01:46:29.095Z,100592.00
2023-04-02T01:48:58.090Z,100594.00
2023-04-02T01:51:31.599Z,100598.00
2023-04-02T01:54:02.167Z,100612.00
2023-04-02T01:56:30.893Z,100616.00
2023-04-02T01:58:59.464Z,100622.00
2023-04-02T02:01:34.294Z,100628.00
2023-04-02T02:04:02.987Z,100622.00
2023-04-02T02:06:31.370Z,100628.00
2023-04-02T02:09:04.309Z,100630.00
2023-04-02T02:11:33.938Z,100641.00
2023-04-02T02:14:03.923Z,100648.00
2023-04-02T02:16:41.575Z,100641.00
2023-04-02T02:19:21.594Z,100653.00
2023-04-02T02:21:52.648Z,100662.00
2023-04-02T02:24:22.999Z,100660.00
2023-04-02T02:26:55.965Z,100663.00
2023-04-02T02:29:27.404Z,100679.00
2023-04-02T02:31:57.485Z,100665.00
2023-04-02T02:34:33.497Z,100678.00
2023-04-02T02:37:05.512Z,100680.00
2023-04-02T02:39:38.945Z,100689.00
2023-04-02T02:42:12.534Z,100692.00
2023-04-02T02:44:44.828Z,100696.00
2023-04-02T02:47:16.526Z,100692.00
2023-04-02T02:49:47.578Z,100704.00
2023-04-02T02:52:17.924Z,100702.00
2023-04-02T02:54:49.402Z,100715.00
2023-04-02T02:57:21.688Z,100716.00
2023-04-02T02:59:51.196Z,100713.00
2023-04-02T03:02:20.579Z,100730.00
2023-04-02T03:04:50.711Z,100732.00
2023-04-02T03:07:19.223Z,100740.00
2023-04-02T03:09:53.563Z,100739.00
2023-04-02T03:12:42.722Z,100746.00
2023-04-02T03:15:19.648Z,100746.00
2023-04-02T03:17:52.501Z,100756.00
2023-04-02T03:20:25.444Z,100759.00
2023-04-02T03:22:57.369Z,100776.00
2023-04-02T03:25:33.682Z,100765.00
2023-04-02T03:28:05.023Z,100777.00
2023-04-02T03:30:39.599Z,100787.00
2023-04-02T03:33:14.807Z,100788.00
2023-04-02T03:35:45.521Z,100785.00
2023-04-02T03:38:17.717Z,100785.00
2023-04-02T03:40:55.094Z,100791.00
2023-04-02T03:43:26.850Z,100799.00
2023-04-02T03:45:58.526Z,100809.00
2023-04-02T03:48:32.276Z,100815.00
2023-04-02T03:51:05.744Z,100817.00
2023-04-02T03:53:33.872Z,100823.00
2023-04-02T03:56:03.842Z,100836.00
2023-04-02T03:58:39.327Z,100831.00
2023-04-02T04:01:13.321Z,100837.00
2023-04-02T04:03:46.646Z,100832.00
2023-04-02T04:06:21.478Z,100846.00
2023-04-02T04:08:54.725Z,100851.00
2023-04-02T04:11:28.141Z,100855.00
2023-04-02T04:14:00.563Z,100861.00
2023-04-02T04:16:33.504Z,100861.00
2023-04-02T04:19:06.603Z,100877.00
2023-04-02T04:21:38.089Z,100870.00
2023-04-02T04:24:08.058Z,100878.00
2023-04-02T04:26:42.786Z,100878.00
2023-04-02T04:29:27.128Z,100905.00
2023-04-02T04:31:56.150Z,100894.00
2023-04-02T04:34:31.364Z,100900.00
2023-04-02T04:37:03.014Z,100899.00
2023-04-02T04:39:40.747Z,100910.00
2023-04-02T04:42:13.623Z,100911.00
2023-04-02T04:44:45.379Z,100907.00
2023-04-02T04:47:18.688Z,100916.00
2023-04-02T04:49:51.838Z,100915.00
2023-04-02T04:52:23.024Z,100929.00
2023-04-02T04:54:50.923Z,100932.00
2023-04-02T04:57:28.898Z,100927.00
2023-04-02T05:00:02.004Z,100937.00
2023-04-02T05:02:35.273Z,100950.00
2023-04-02T05:05:05.181Z,100928.00
2023-04-02T05:07:37.421Z,100957.00
2023-04-02T05:10:14.620Z,100967.00
2023-04-02T05:12:46.677Z,100980.00
2023-04-02T05:15:21.355Z,100979.00
2023-04-02T05:17:55.549Z,100981.00
2023-04-02T05:20:30.527Z,100993.00
2023-04-02T05:23:04.059Z,100989.00
2023-04-02T05:25:33.260Z,100985.00
2023-04-02T05:28:07.065Z,101010.00
2023-04-02T05:30:47.062Z,101016.00
2023-04-02T05:33:27.592Z,101021.00
2023-04-02T05:36:01.626Z,101022.00
2023-04-02T05:38:31.351Z,101014.00
2023-04-02T05:41:04.844Z,101029.00
2023-04-02T05:43:34.884Z,101032.00
2023-04-02T05:46:09.064Z,101031.00
2023-04-02T05:48:40.303Z,101029.00
2023-04-02T05:51:16.412Z,101040.00
2023-04-02T05:53:51.213Z,101047.00
2023-04-02T05:56:21.975Z,101052.00
2023-04-02T05:58:52.811Z,101048.00
2023-04-02T06:01:33.500Z,101052.00
2023-04-02T06:04:06.630Z,101060.00
2023-04-02T06:06:50.387Z,101068.00
2023-04-02T06:09:23.253Z,101072.00
2023-04-02T06:11:57.877Z,101075.00
2023-04-02T06:14:25.724Z,101073.00
2023-04-02T06:16:53.644Z,101093.00
2023-04-02T06:19:25.632Z,101071.00
2023-04-02T06:22:01.059Z,101108.00
2023-04-02T06:24:31.182Z,101110.00
2023-04-02T06:27:02.875Z,101112.00
2023-04-02T06:29:39.569Z,101124.00
2023-04-02T06:32:09.259Z,101122.00
2023-04-02T06:34:39.126Z,101127.00
2023-04-02T06:37:18.201Z,101133.00
2023-04-02T06:39:45.985Z,101099.00
2023-04-02T06:42:17.816Z,101126.00
2023-04-02T06:44:45.889Z,101140.00
2023-04-02T06:47:23.785Z,101153.00
2023-04-02T06:49:57.822Z,101115.00
2023-04-02T06:52:31.616Z,101153.00
2023-04-02T06:55:00.854Z,101158.00
2023-04-02T06:57:28.850Z,101168.00
2023-04-02T06:59:56.654Z,101168.00
2023-04-02T07:02:31.619Z,101167.00
2023-04-02T07:05:04.477Z,101193.00
2023-04-02T07:07:33.665Z,101172.00
2023-04-02T07:10:01.591Z,101191.00
2023-04-02T07:12:29.277Z,101193.00
2023-04-02T07:14:57.354Z,101189.00
2023-04-02T07:17:25.028Z,101203.00
2023-04-02T07:19:52.974Z,101195.00
2023-04-02T07:22:21.454Z,101209.00
2023-04-02T07:24:50.651Z,101215.00
2023-04-02T07:27:18.417Z,101214.00
2023-04-02T07:29:46.171Z,101220.00
2023-04-02T07:32:14.752Z,101224.00
2023-04-02T07:34:42.770Z,101234.00
2023-04-02T07:37:15.168Z,101233.00
2023-04-02T07:39:42.928Z,101241.00
2023-04-02T07:42:12.596Z,101248.00
2023-04-02T07:44:40.469Z,101252.00
2023-04-02T07:47:08.623Z,101239.00
2023-04-02T07:49:36.366Z,101255.00
2023-04-02T07:52:04.526Z,101260.00
2023-04-02T07:54:32.464Z,101263.00
2023-04-02T07:57:00.297Z,101264.00
2023-04-02T07:59:29.433Z,101275.00
2023-04-02T08:01:57.859Z,101278.00
2023-04-02T08:04:25.701Z,101288.00
2023-04-02T08:06:53.916Z,101280.00
2023-04-02T08:09:22.032Z,101291.00
2023-04-02T08:11:49.721Z,101306.00
2023-04-02T08:14:17.437Z,101304.00
2023-04-02T08:16:48.529Z,101316.00
2023-04-02T08:19:16.694Z,101306.00
2023-04-02T08:21:44.635Z,101314.00
2023-04-02T08:24:12.545Z,101320.00
2023-04-02T08:26:40.363Z,101323.00
2023-04-02T08:29:08.176Z,101323.00
2023-04-02T08:31:36.127Z,101335.00
2023-04-02T08:34:05.828Z,101321.00
2023-04-02T08:36:36.630Z,101341.00
2023-04-02T08:39:05.720Z,101334.00
2023-04-02T08:41:39.017Z,101334.00
2023-04-02T08:44:19.361Z,101360.00
2023-04-02T08:46:52.524Z,101352.00
2023-04-02T08:49:29.912Z,101365.00
2023-04-02T08:51:57.696Z,101340.00
2023-04-02T08:54:28.184Z,101355.00
2023-04-02T08:57:00.532Z,101359.00
2023-04-02T08:59:35.066Z,101388.00
2023-04-02T09:02:15.499Z,101394.00
2023-04-02T09:04:44.799Z,101388.00
2023-04-02T09:07:14.191Z,101380.00
2023-04-02T09:09:42.029Z,101377.00
2023-04-02T09:12:18.842Z,101394.00
2023-04-02T09:14:56.673Z,101408.00
2023-04-02T09:17:25.606Z,101384.00
2023-04-02T09:19:58.376Z,101412.00
2023-04-02T09:22:28.059Z,101416.00
2023-04-02T09:24:57.286Z,101428.00
2023-04-02T09:27:26.740Z,101428.00
2023-04-02T09:29:56.510Z,101435.00
2023-04-02T09:32:47.798Z,101428.00
2023-04-02T09:35:26.033Z,101417.00
2023-04-02T09:38:20.453Z,101429.00
2023-04-02T09:40:51.792Z,101431.00
2023-04-02T09:43:22.236Z,101453.00
2023-04-02T09:45:59.533Z,101445.00
2023-04-02T09:48:31.200Z,101459.00
2023-04-02T09:51:14.029Z,101465.00
2023-04-02T09:53:43.512Z,101471.00
2023-04-02T09:56:14.596Z,101476.00
2023-04-02T09:58:44.058Z,101459.00
2023-04-02T10:01:29.105Z,101482.00
2023-04-02T10:03:59.147Z,101483.00
2023-04-02T10:06:29.358Z,101465.00
2023-04-02T10:08:57.964Z,101469.00
2023-04-02T10:11:36.593Z,101483.00
2023-04-02T10:14:17.131Z,101515.00
2023-04-02T10:16:49.581Z,101487.00
2023-04-02T10:19:26.411Z,101505.00
2023-04-02T10:21:57.608Z,101510.00
2023-04-02T10:24:29.144Z,101517.00
2023-04-02T10:27:05.202Z,101505.00
2023-04-02T10:30:03.958Z,101505.00
2023-04-02T10:32:37.866Z,101517.00
2023-04-02T10:35:14.043Z,101513.00
2023-04-02T10:38:11.051Z,101520.00
2023-04-02T10:40:44.792Z,101538.00
2023-04-02T10:43:35.603Z,101525.00
2023-04-02T10:46:10.563Z,101531.00
2023-04-02T10:48:45.096Z,101523.00
2023-04-02T10:51:29.445Z,101530.00
2023-04-02T10:54:04.586Z,101508.00
2023-04-02T10:56:44.076Z,101532.00
2023-04-02T10:59:20.647Z,101529.00
2023-04-02T11:01:50.106Z,101539.00
2023-04-02T11:04:20.851Z,101522.00
2023-04-02T11:06:56.074Z,101557.00
2023-04-02T11:09:38.377Z,101549.00
2023-04-02T11:12:07.629Z,101547.00
2023-04-02T11:14:36.563Z,101560.00
2023-04-02T11:17:04.427Z,101555.00
2023-04-02T11:19:32.976Z,101552.00
2023-04-02T11:22:04.432Z,101561.00
2023-04-02T11:24:45.039Z,101576.00
2023-04-02T11:27:25.501Z,101578.00
2023-04-02T11:29:58.557Z,101573.00
2023-04-02T11:32:35.735Z,101571.00
2023-04-02T11:35:27.194Z,101561.00
2023-04-02T11:37:56.269Z,101567.00
2023-04-02T11:40:54.717Z,101578.00
2023-04-02T11:43:51.658Z,101578.00
2023-04-02T11:46:45.588Z,101578.00
2023-04-02T11:49:36.533Z,101580.00
2023-04-02T11:52:11.843Z,101588.00
2023-04-02T11:54:41.862Z,101593.00
2023-04-02T11:57:23.988Z,101598.00
2023-04-02T12:00:09.703Z,101593.00
2023-04-02T12:02:45.453Z,101592.00
2023-04-02T12:05:24.459Z,101589.00
2023-04-02T12:08:13.580Z,101601.00
2023-04-02T12:10:55.383Z,101602.00
2023-04-02T12:13:53.092Z,101597.00
2023-04-02T12:16:22.851Z,101605.00
2023-04-02T12:18:54.573Z,101598.00
2023-04-02T12:21:25.575Z,101597.00
2023-04-02T12:23:55.578Z,101613.00
2023-04-02T12:26:31.886Z,101596.00
2023-04-02T12:29:24.035Z,101618.00
2023-04-02T12:31:52.190Z,101608.00
2023-04-02T12:34:21.845Z,101619.00
2023-04-02T12:36:54.578Z,101625.00
2023-04-02T12:39:22.540Z,101615.00
2023-04-02T12:41:50.562Z,101606.00
2023-04-02T12:44:21.809Z,101622.00
2023-04-02T12:46:52.327Z,101630.00
2023-04-02T12:49:38.535Z,101614.00
2023-04-02T12:52:08.667Z,101609.00
2023-04-02T12:54:39.323Z,101603.00
2023-04-02T12:57:39.870Z,101608.00
2023-04-02T13:00:37.128Z,101598.00
2023-04-02T13:03:21.406Z,101614.00
2023-04-02T13:05:53.227Z,101612.00
2023-04-02T13:08:24.671Z,101579.00
2023-04-02T13:10:58.615Z,101612.00
2023-04-02T13:13:29.995Z,101603.00
2023-04-02T13:16:24.004Z,101613.00
2023-04-02T13:19:09.583Z,101612.00
2023-04-02T13:21:37.394Z,101615.00
2023-04-02T13:24:05.585Z,101592.00
2023-04-02T13:26:34.543Z,101627.00
2023-04-02T13:29:03.891Z,101622.00
2023-04-02T13:31:33.618Z,101637.00
2023-04-02T13:34:03.090Z,101631.00
2023-04-02T13:36:31.172Z,101616.00
2023-04-02T13:38:58.860Z,101631.00
2023-04-02T13:41:28.510Z,101632.00
2023-04-02T13:43:59.662Z,101625.00
2023-04-02T13:46:29.396Z,101636.00
2023-04-02T13:48:57.938Z,101641.00
2023-04-02T13:51:35.656Z,101624.00
2023-04-02T13:54:03.912Z,101650.00
2023-04-02T13:56:32.230Z,101638.00
2023-04-02T13:59:00.339Z,101634.00
2023-04-02T14:01:28.553Z,101636.00
2023-04-02T14:03:57.912Z,101653.00
2023-04-02T14:06:36.327Z,101654.00
2023-04-02T14:09:10.972Z,101658.00
2023-04-02T14:11:52.150Z,101662.00
2023-04-02T14:14:52.513Z,101661.00
2023-04-02T14:17:28.299Z,101659.00
2023-04-02T14:20:10.900Z,101672.00
2023-04-02T14:22:54.334Z,101664.00
2023-04-02T14:25:30.041Z,101656.00
2023-04-02T14:28:08.577Z,101669.00
2023-04-02T14:30:44.902Z,101665.00
2023-04-02T14:33:24.272Z,101675.00
2023-04-02T14:35:57.613Z,101665.00
2023-04-02T14:38:35.558Z,101673.00
2023-04-02T14:41:08.633Z,101684.00
2023-04-02T14:43:40.862Z,101669.00
2023-04-02T14:46:10.206Z,101663.00
2023-04-02T14:48:44.398Z,101671.00
2023-04-02T14:51:18.473Z,101672.00
2023-04-02T14:53:56.417Z,101661.00
2023-04-02T14:56:25.626Z,101673.00
2023-04-02T14:58:59.567Z,101657.00
2023-04-02T15:01:32.596Z,101661.00
2023-04-02T15:04:04.029Z,101675.00
2023-04-02T15:06:38.542Z,101688.00
2023-04-02T15:09:14.295Z,101703.00
2023-04-02T15:11:46.371Z,101695.00
2023-04-02T15:14:19.758Z,101690.00
2023-04-02T15:16:47.499Z,101722.00
2023-04-02T15:19:17.646Z,101713.00
2023-04-02T15:22:12.738Z,101701.00
2023-04-02T15:24:52.088Z,101712.00
2023-04-02T15:27:32.839Z,101707.00
2023-04-02T15:30:08.586Z,101705.00
2023-04-02T15:32:40.902Z,101710.00
2023-04-02T15:35:20.459Z,101700.00
2023-04-02T15:37:58.819Z,101715.00
2023-04-02T15:40:49.754Z,101707.00
2023-04-02T15:43:23.007Z,101696.00
2023-04-02T15:45:59.456Z,101730.00
2023-04-02T15:48:49.079Z,101703.00
2023-04-02T15:51:33.921Z,101710.00
2023-04-02T15:54:09.568Z,101723.00
2023-04-02T15:56:49.905Z,101710.00
2023-04-02T15:59:43.053Z,101737.00
2023-04-02T16:02:32.389Z,101734.00
2023-04-02T16:05:04.974Z,101724.00
2023-04-02T16:07:56.194Z,101725.00
2023-04-02T16:10:40.165Z,101699.00
2023-04-02T16:13:18.036Z,101735.00
2023-04-02T16:15:52.151Z,101755.00
2023-04-02T16:18:31.385Z,101749.00
2023-04-02T16:21:02.417Z,101752.00
2023-04-02T16:23:35.443Z,101772.00
2023-04-02T16:26:13.091Z,101777.00
2023-04-02T16:28:49.564Z,101771.00
2023-04-02T16:31:23.898Z,101774.00
2023-04-02T16:34:02.393Z,101793.00
2023-04-02T16:36:40.058Z,101790.00
2023-04-02T16:39:16.895Z,101786.00
2023-04-02T16:41:57.729Z,101785.00
2023-04-02T16:44:38.858Z,101809.00
2023-04-02T16:47:23.614Z,101821.00
2023-04-02T16:49:57.181Z,101801.00
2023-04-02T16:52:40.630Z,101823.00
2023-04-02T16:55:35.243Z,101828.00
2023-04-02T16:58:15.151Z,101828.00
2023-04-02T17:00:49.937Z,101826.00
2023-04-02T17:03:34.756Z,101834.00
2023-04-02T17:06:06.846Z,101842.00
2023-04-02T17:08:43.159Z,101859.00
2023-04-02T17:11:17.400Z,101854.00
2023-04-02T17:13:49.579Z,101851.00
2023-04-02T17:16:21.851Z,101854.00
2023-04-02T17:18:51.977Z,101859.00
2023-04-02T17:21:24.977Z,101871.00
2023-04-02T17:23:56.718Z,101869.00
2023-04-02T17:26:28.274Z,101865.00
2023-04-02T17:28:58.544Z,101856.00
2023-04-02T17:31:34.085Z,101874.00
2023-04-02T17:34:10.707Z,101879.00
2023-04-02T17:36:43.408Z,101887.00
2023-04-02T17:39:21.263Z,101880.00
2023-04-02T17:41:54.244Z,101893.00
2023-04-02T17:44:38.902Z,101883.00
2023-04-02T17:47:16.951Z,101897.00
2023-04-02T17:49:54.913Z,101891.00
2023-04-02T17:52:26.359Z,101908.00
2023-04-02T17:55:03.081Z,101916.00
2023-04-02T17:57:46.007Z,101919.00
2023-04-02T18:00:24.578Z,101912.00
2023-04-02T18:03:06.834Z,101922.00
2023-04-02T18:05:40.029Z,101935.00
2023-04-02T18:08:22.517Z,101928.00
2023-04-02T18:11:03.977Z,101936.00
2023-04-02T18:13:36.136Z,101939.00
2023-04-02T18:16:29.643Z,101943.00
2023-04-02T18:19:10.039Z,101937.00
2023-04-02T18:21:44.171Z,101945.00
2023-04-02T18:24:32.825Z,101955.00
2023-04-02T18:27:13.772Z,101947.00
2023-04-02T18:29:45.486Z,101962.00
2023-04-02T18:32:35.440Z,101973.00
2023-04-02T18:35:16.248Z,101972.00
2023-04-02T18:37:56.778Z,101963.00
2023-04-02T18:40:38.457Z,101981.00
2023-04-02T18:43:14.539Z,101996.00
2023-04-02T18:45:52.614Z,101983.00
2023-04-02T18:48:35.370Z,101966.00
2023-04-02T18:51:06.925Z,102002.00
2023-04-02T18:53:35.814Z,101996.00
2023-04-02T18:56:06.602Z,102009.00
2023-04-02T18:58:41.859Z,102020.00
2023-04-02T19:01:14.614Z,102022.00
2023-04-02T19:03:46.402Z,101997.00
2023-04-02T19:06:21.179Z,102022.00
2023-04-02T19:08:52.236Z,102014.00
2023-04-02T19:11:28.466Z,102030.00
2023-04-02T19:13:59.563Z,102036.00
2023-04-02T19:16:49.449Z,102042.00
2023-04-02T19:19:20.807Z,102045.00
2023-04-02T19:22:16.542Z,102056.00
2023-04-02T19:24:58.994Z,102046.00
2023-04-02T19:27:32.855Z,102054.00
2023-04-02T19:30:11.640Z,102063.00
2023-04-02T19:32:47.469Z,102064.00
2023-04-02T19:35:21.582Z,102072.00
2023-04-02T19:37:58.954Z,102069.00
2023-04-02T19:40:35.927Z,102070.00
2023-04-02T19:43:04.146Z,102090.00
2023-04-02T19:45:36.573Z,102093.00
2023-04-02T19:48:12.302Z,102093.00
2023-04-02T19:50:40.427Z,102101.00
2023-04-02T19:53:09.681Z,102097.00
2023-04-02T19:55:38.070Z,102107.00
2023-04-02T19:58:17.582Z,102100.00
2023-04-02T20:00:47.267Z,102109.00
2023-04-02T20:03:15.060Z,102102.00
2023-04-02T20:05:43.603Z,102103.00
2023-04-02T20:08:13.084Z,102103.00
2023-04-02T20:10:41.511Z,102108.00
2023-04-02T20:13:10.098Z,102117.00
2023-04-02T20:15:38.074Z,102109.00
2023-04-02T20:18:06.478Z,102122.00
2023-04-02T20:20:34.671Z,102125.00
2023-04-02T20:23:02.779Z,102117.00
2023-04-02T20:25:31.959Z,102136.00
2023-04-02T20:28:00.821Z,102128.00
2023-04-02T20:30:28.622Z,102146.00
2023-04-02T20:32:59.242Z,102146.00
2023-04-02T20:35:27.413Z,102142.00
2023-04-02T20:37:55.341Z,102144.00
2023-04-02T20:40:23.067Z,102150.00
2023-04-02T20:42:53.126Z,102144.00
2023-04-02T20:45:20.858Z,102155.00
2023-04-02T20:47:48.549Z,102149.00
2023-04-02T20:50:16.611Z,102167.00
2023-04-02T20:52:44.682Z,102156.00
2023-04-02T20:55:12.585Z,102170.00
2023-04-02T20:57:40.357Z,102169.00
2023-04-02T21:00:12.190Z,102171.00
2023-04-02T21:02:40.651Z,102179.00
2023-04-02T21:05:08.967Z,102170.00
2023-04-02T21:07:36.823Z,102181.00
2023-04-02T21:10:04.868Z,102190.00
2023-04-02T21:12:32.710Z,102190.00
2023-04-02T21:15:02.226Z,102190.00
2023-04-02T21:17:32.022Z,102197.00
2023-04-02T21:19:59.693Z,102197.00
2023-04-02T21:22:27.414Z,102198.00
2023-04-02T21:24:55.077Z,102195.00
2023-04-02T21:27:25.679Z,102197.00
2023-04-02T21:29:53.672Z,102185.00
2023-04-02T21:32:22.212Z,102207.00
2023-04-02T21:34:51.612Z,102217.00
2023-04-02T21:37:19.325Z,102220.00
2023-04-02T21:39:47.024Z,102217.00
2023-04-02T21:42:15.155Z,102230.00
2023-04-02T21:44:42.897Z,102227.00
2023-04-02T21:47:10.713Z,102231.00
2023-04-02T21:49:38.523Z,102234.00
2023-04-02T21:52:07.594Z,102243.00
2023-04-02T21:54:35.310Z,102238.00
2023-04-02T21:57:03.123Z,102243.00
2023-04-02T21:59:30.989Z,102235.00
2023-04-02T22:01:58.756Z,102243.00
2023-04-02T22:04:28.398Z,102248.00
2023-04-02T22:06:56.171Z,102247.00
2023-04-02T22:09:26.953Z,102220.00
2023-04-02T22:11:58.671Z,102247.00
2023-04-02T22:14:27.413Z,102255.00
2023-04-02T22:16:55.693Z,102251.00
2023-04-02T22:19:23.546Z,102258.00
2023-04-02T22:21:51.494Z,102266.00
2023-04-02T22:24:22.027Z,102255.00
2023-04-02T22:26:51.250Z,102261.00
2023-04-02T22:29:19.024Z,102261.00
2023-04-02T22:31:46.862Z,102265.00
2023-04-02T22:34:14.993Z,102264.00
2023-04-02T22:36:42.766Z,102265.00
2023-04-02T22:39:12.277Z,102263.00
2023-04-02T22:41:40.338Z,102265.00
2023-04-02T22:44:14.563Z,102272.00
2023-04-02T22:46:42.408Z,102260.00
2023-04-02T22:49:10.994Z,102272.00
2023-04-02T22:51:38.665Z,102271.00
2023-04-02T22:54:06.862Z,102272.00
2023-04-02T22:56:35.369Z,102241.00
2023-04-02T22:59:03.105Z,102287.00
2023-04-02T23:01:34.360Z,102290.00
2023-04-02T23:04:04.810Z,102296.00
2023-04-02T23:06:33.424Z,102300.00
2023-04-02T23:09:01.229Z,102291.00
2023-04-02T23:11:29.115Z,102298.00
2023-04-02T23:13:58.756Z,102284.00
2023-04-02T23:16:28.031Z,102296.00
2023-04-02T23:18:57.448Z,102269.00
2023-04-02T23:21:26.009Z,102295.00
2023-04-02T23:23:53.781Z,102296.00
2023-04-02T23:26:23.234Z,102300.00
2023-04-02T23:28:51.929Z,102304.00
2023-04-02T23:31:21.240Z,102283.00
2023-04-02T23:33:49.116Z,102294.00
2023-04-02T23:36:22.316Z,102312.00
2023-04-02T23:38:54.843Z,102303.00
2023-04-02T23:41:24.965Z,102307.00
2023-04-02T23:43:53.342Z,102309.00
2023-04-02T23:46:22.005Z,102317.00
2023-04-02T23:48:51.482Z,102308.00
2023-04-02T23:51:20.697Z,102313.00
2023-04-02T23:53:48.507Z,102309.00
2023-04-02T23:56:16.396Z,102313.00
2023-04-02T23:58:44.250Z,102295.00
